createdAt,value
2019-01-25T00:00:18.549Z,0
2019-01-25T00:01:18.438Z,0
2019-01-25T00:02:18.318Z,0
2019-01-25T00:03:19.339Z,0
2019-01-25T00:04:18.331Z,0
2019-01-25T00:05:18.355Z,0
2019-01-25T00:06:18.629Z,0
2019-01-25T00:07:17.851Z,0
2019-01-25T00:08:18.122Z,0
2019-01-25T00:09:18.659Z,0
2019-01-25T00:10:18.409Z,0
2019-01-25T00:11:18.158Z,0
2019-01-25T00:12:18.428Z,0
2019-01-25T00:13:18.202Z,0
2019-01-25T00:14:18.477Z,0
2019-01-25T00:15:18.479Z,0
2019-01-25T00:16:17.970Z,0
2019-01-25T00:17:18.932Z,0
2019-01-25T00:18:17.999Z,0
2019-01-25T00:19:18.279Z,0
2019-01-25T00:20:18.580Z,0
2019-01-25T00:21:18.305Z,0
2019-01-25T00:22:18.373Z,0
2019-01-25T00:23:18.317Z,0
2019-01-25T00:24:18.347Z,0
2019-01-25T00:25:18.633Z,0
2019-01-25T00:26:18.623Z,0
2019-01-25T00:27:18.907Z,0
2019-01-25T00:28:18.680Z,0
2019-01-25T00:29:18.720Z,0
2019-01-25T00:30:18.685Z,0
2019-01-25T00:31:18.713Z,0
2019-01-25T00:32:18.187Z,0
2019-01-25T00:33:19.002Z,0
2019-01-25T00:34:18.255Z,0
2019-01-25T00:35:19.008Z,0
2019-01-25T00:36:18.763Z,0
2019-01-25T00:37:18.528Z,0
2019-01-25T00:38:18.796Z,0
2019-01-25T00:39:19.082Z,0
2019-01-25T00:40:18.557Z,0
2019-01-25T00:41:18.835Z,0
2019-01-25T00:42:18.853Z,0
2019-01-25T00:43:19.120Z,0
2019-01-25T00:44:19.129Z,0
2019-01-25T00:45:18.378Z,0
2019-01-25T00:46:18.387Z,0
2019-01-25T00:47:19.178Z,0
2019-01-25T00:48:18.662Z,0
2019-01-25T00:49:18.684Z,0
2019-01-25T00:50:18.965Z,0
2019-01-25T00:51:19.269Z,0
2019-01-25T00:52:19.258Z,0
2019-01-25T00:53:18.735Z,0
2019-01-25T00:54:18.506Z,0
2019-01-25T00:55:19.272Z,0
2019-01-25T00:56:19.045Z,0
2019-01-25T00:57:19.315Z,0
2019-01-25T00:58:18.816Z,0
2019-01-25T00:59:19.090Z,0
2019-01-25T01:00:19.111Z,0
2019-01-25T01:01:19.105Z,0
2019-01-25T01:02:18.865Z,0
2019-01-25T01:03:18.878Z,0
2019-01-25T01:04:19.161Z,0
2019-01-25T01:05:19.435Z,0
2019-01-25T01:06:19.162Z,0
2019-01-25T01:07:18.938Z,0
2019-01-25T01:08:19.196Z,0
2019-01-25T01:09:18.950Z,0
2019-01-25T01:10:23.687Z,0
2019-01-25T01:11:18.725Z,0
2019-01-25T01:12:18.987Z,0
2019-01-25T01:13:19.260Z,0
2019-01-25T01:14:19.008Z,0
2019-01-25T01:15:18.781Z,0
2019-01-25T01:16:20.669Z,0
2019-01-25T01:17:19.067Z,0
2019-01-25T01:18:19.609Z,0
2019-01-25T01:19:19.362Z,0
2019-01-25T01:20:19.360Z,0
2019-01-25T01:21:19.713Z,0
2019-01-25T01:22:19.159Z,0
2019-01-25T01:23:19.157Z,0
2019-01-25T01:24:19.410Z,0
2019-01-25T01:25:19.442Z,0
2019-01-25T01:26:19.206Z,0
2019-01-25T01:27:19.456Z,0
2019-01-25T01:28:19.481Z,0
2019-01-25T01:29:19.740Z,0
2019-01-25T01:30:19.237Z,0
2019-01-25T01:31:20.035Z,0
2019-01-25T01:32:19.267Z,0
2019-01-25T01:33:19.296Z,0
2019-01-25T01:34:19.810Z,0
2019-01-25T01:35:19.602Z,0
2019-01-25T01:36:19.585Z,0
2019-01-25T01:37:19.073Z,0
2019-01-25T01:38:19.612Z,0
2019-01-25T01:39:19.630Z,0
2019-01-25T01:40:26.506Z,0
2019-01-25T01:41:19.653Z,0
2019-01-25T01:42:19.918Z,0
2019-01-25T01:43:19.419Z,0
2019-01-25T01:44:19.678Z,0
2019-01-25T01:45:19.973Z,0
2019-01-25T01:46:19.717Z,0
2019-01-25T01:47:19.633Z,0
2019-01-25T01:48:19.792Z,0
2019-01-25T01:49:19.757Z,0
2019-01-25T01:50:19.246Z,0
2019-01-25T01:51:20.063Z,0
2019-01-25T01:52:20.117Z,0
2019-01-25T01:53:19.827Z,0
2019-01-25T01:54:19.818Z,0
2019-01-25T01:55:19.843Z,0
2019-01-25T01:56:19.843Z,0
2019-01-25T01:57:20.114Z,0
2019-01-25T01:58:19.355Z,0
2019-01-25T01:59:19.889Z,0
2019-01-25T02:00:19.397Z,0
2019-01-25T02:01:19.662Z,0
2019-01-25T02:02:19.665Z,0
2019-01-25T02:03:19.442Z,0
2019-01-25T02:04:19.970Z,0
2019-01-25T02:05:19.962Z,0
2019-01-25T02:06:19.475Z,0
2019-01-25T02:07:20.530Z,0
2019-01-25T02:08:20.282Z,0
2019-01-25T02:09:19.777Z,0
2019-01-25T02:10:19.776Z,0
2019-01-25T02:11:19.812Z,0
2019-01-25T02:12:20.075Z,0
2019-01-25T02:13:19.875Z,0
2019-01-25T02:14:19.844Z,0
2019-01-25T02:15:20.127Z,0
2019-01-25T02:16:19.857Z,0
2019-01-25T02:17:19.614Z,0
2019-01-25T02:18:20.146Z,0
2019-01-25T02:19:20.159Z,0
2019-01-25T02:20:20.173Z,0
2019-01-25T02:21:19.940Z,0
2019-01-25T02:22:19.945Z,0
2019-01-25T02:23:20.212Z,0
2019-01-25T02:24:19.711Z,0
2019-01-25T02:25:20.270Z,0
2019-01-25T02:26:20.275Z,0
2019-01-25T02:27:20.543Z,0
2019-01-25T02:28:20.282Z,0
2019-01-25T02:29:20.294Z,0
2019-01-25T02:30:20.342Z,0
2019-01-25T02:31:20.351Z,0
2019-01-25T02:32:20.342Z,0
2019-01-25T02:33:20.387Z,0
2019-01-25T02:34:19.857Z,0
2019-01-25T02:35:20.408Z,0
2019-01-25T02:36:20.135Z,0
2019-01-25T02:37:20.423Z,0
2019-01-25T02:38:20.431Z,0
2019-01-25T02:39:20.267Z,0
2019-01-25T02:40:20.735Z,0
2019-01-25T02:41:20.467Z,0
2019-01-25T02:42:20.750Z,0
2019-01-25T02:43:20.509Z,0
2019-01-25T02:44:20.578Z,0
2019-01-25T02:45:20.534Z,0
2019-01-25T02:46:20.272Z,0
2019-01-25T02:47:20.565Z,0
2019-01-25T02:48:20.559Z,0
2019-01-25T02:49:20.383Z,0
2019-01-25T02:50:21.097Z,0
2019-01-25T02:51:20.610Z,0
2019-01-25T02:52:20.893Z,0
2019-01-25T02:53:20.370Z,0
2019-01-25T02:54:20.653Z,0
2019-01-25T02:55:20.137Z,0
2019-01-25T02:56:20.412Z,0
2019-01-25T02:57:20.943Z,0
2019-01-25T02:58:20.710Z,0
2019-01-25T02:59:20.452Z,0
2019-01-25T03:00:20.728Z,0
2019-01-25T03:01:20.990Z,0
2019-01-25T03:02:20.498Z,0
2019-01-25T03:03:20.260Z,0
2019-01-25T03:04:20.527Z,0
2019-01-25T03:05:20.549Z,0
2019-01-25T03:06:21.324Z,0
2019-01-25T03:07:21.086Z,0
2019-01-25T03:08:21.096Z,0
2019-01-25T03:09:20.868Z,0
2019-01-25T03:10:28.176Z,0
2019-01-25T03:11:20.881Z,0
2019-01-25T03:12:21.154Z,0
2019-01-25T03:13:20.917Z,0
2019-01-25T03:14:20.697Z,0
2019-01-25T03:15:20.417Z,0
2019-01-25T03:16:20.938Z,0
2019-01-25T03:17:20.697Z,0
2019-01-25T03:18:21.239Z,0
2019-01-25T03:19:21.247Z,0
2019-01-25T03:20:20.475Z,0
2019-01-25T03:21:21.027Z,0
2019-01-25T03:22:20.775Z,0
2019-01-25T03:23:20.798Z,0
2019-01-25T03:24:21.058Z,0
2019-01-25T03:25:20.811Z,0
2019-01-25T03:26:20.839Z,0
2019-01-25T03:27:21.705Z,0
2019-01-25T03:28:21.101Z,0
2019-01-25T03:29:21.391Z,0
2019-01-25T03:30:21.173Z,0
2019-01-25T03:31:20.923Z,0
2019-01-25T03:32:21.787Z,0
2019-01-25T03:33:20.950Z,0
2019-01-25T03:34:21.486Z,0
2019-01-25T03:35:21.233Z,0
2019-01-25T03:36:21.215Z,0
2019-01-25T03:37:21.260Z,0
2019-01-25T03:38:21.011Z,0
2019-01-25T03:39:21.539Z,0
2019-01-25T03:40:21.554Z,0
2019-01-25T03:41:21.018Z,0
2019-01-25T03:42:21.338Z,0
2019-01-25T03:43:21.429Z,0
2019-01-25T03:44:20.811Z,0
2019-01-25T03:45:21.604Z,0
2019-01-25T03:46:21.419Z,0
2019-01-25T03:47:21.378Z,0
2019-01-25T03:48:21.414Z,0
2019-01-25T03:49:21.855Z,0
2019-01-25T03:50:21.680Z,0
2019-01-25T03:51:21.486Z,0
2019-01-25T03:52:21.430Z,0
2019-01-25T03:53:21.513Z,0
2019-01-25T03:54:21.475Z,0
2019-01-25T03:55:21.491Z,0
2019-01-25T03:56:22.014Z,0
2019-01-25T03:57:21.541Z,0
2019-01-25T03:58:21.001Z,0
2019-01-25T03:59:21.526Z,0
2019-01-25T04:00:21.286Z,0
2019-01-25T04:01:21.563Z,0
2019-01-25T04:02:21.594Z,0
2019-01-25T04:03:21.066Z,0
2019-01-25T04:04:21.896Z,0
2019-01-25T04:05:21.878Z,0
2019-01-25T04:06:21.885Z,0
2019-01-25T04:07:21.897Z,0
2019-01-25T04:08:21.399Z,0
2019-01-25T04:09:21.415Z,0
2019-01-25T04:10:21.931Z,0
2019-01-25T04:11:21.179Z,0
2019-01-25T04:12:21.546Z,0
2019-01-25T04:13:21.731Z,0
2019-01-25T04:14:21.796Z,0
2019-01-25T04:15:21.502Z,0
2019-01-25T04:16:22.049Z,0
2019-01-25T04:17:21.768Z,0
2019-01-25T04:18:22.122Z,0
2019-01-25T04:19:21.805Z,0
2019-01-25T04:20:21.843Z,0
2019-01-25T04:21:22.083Z,0
2019-01-25T04:22:21.835Z,0
2019-01-25T04:23:21.593Z,0
2019-01-25T04:24:22.174Z,0
2019-01-25T04:25:21.631Z,0
2019-01-25T04:26:22.259Z,0
2019-01-25T04:27:21.920Z,0
2019-01-25T04:28:21.679Z,0
2019-01-25T04:29:21.944Z,0
2019-01-25T04:30:22.217Z,0
2019-01-25T04:31:22.217Z,0
2019-01-25T04:32:21.461Z,0
2019-01-25T04:33:22.247Z,0
2019-01-25T04:34:22.290Z,0
2019-01-25T04:35:22.557Z,0
2019-01-25T04:36:22.035Z,0
2019-01-25T04:37:21.813Z,0
2019-01-25T04:38:22.567Z,0
2019-01-25T04:39:22.140Z,0
2019-01-25T04:40:22.355Z,0
2019-01-25T04:41:21.847Z,0
2019-01-25T04:42:22.375Z,0
2019-01-25T04:43:22.148Z,0
2019-01-25T04:44:22.394Z,0
2019-01-25T04:45:22.448Z,0
2019-01-25T04:46:22.181Z,0
2019-01-25T04:47:21.665Z,0
2019-01-25T04:48:22.204Z,0
2019-01-25T04:49:22.476Z,0
2019-01-25T04:50:23.847Z,0
2019-01-25T04:51:22.489Z,0
2019-01-25T04:52:22.254Z,0
2019-01-25T04:53:22.283Z,0
2019-01-25T04:54:21.758Z,0
2019-01-25T04:55:22.300Z,0
2019-01-25T04:56:22.557Z,0
2019-01-25T04:57:22.318Z,0
2019-01-25T04:58:22.844Z,0
2019-01-25T04:59:22.358Z,0
2019-01-25T05:00:22.365Z,0
2019-01-25T05:01:22.154Z,0
2019-01-25T05:02:22.388Z,0
2019-01-25T05:03:22.411Z,0
2019-01-25T05:04:22.420Z,0
2019-01-25T05:05:22.472Z,0
2019-01-25T05:06:22.180Z,0
2019-01-25T05:07:22.464Z,0
2019-01-25T05:08:22.996Z,0
2019-01-25T05:09:22.223Z,0
2019-01-25T05:10:22.241Z,0
2019-01-25T05:11:29.108Z,0
2019-01-25T05:12:22.285Z,0
2019-01-25T05:13:22.282Z,0
2019-01-25T05:14:22.307Z,0
2019-01-25T05:15:22.320Z,0
2019-01-25T05:16:22.844Z,0
2019-01-25T05:17:22.354Z,0
2019-01-25T05:18:22.370Z,0
2019-01-25T05:19:22.917Z,0
2019-01-25T05:20:22.640Z,0
2019-01-25T05:21:22.903Z,0
2019-01-25T05:22:22.919Z,0
2019-01-25T05:23:22.693Z,0
2019-01-25T05:24:22.445Z,0
2019-01-25T05:25:22.467Z,0
2019-01-25T05:26:22.520Z,0
2019-01-25T05:27:22.742Z,0
2019-01-25T05:28:23.038Z,0
2019-01-25T05:29:22.494Z,0
2019-01-25T05:30:22.766Z,0
2019-01-25T05:31:22.785Z,0
2019-01-25T05:32:22.790Z,0
2019-01-25T05:33:22.827Z,0
2019-01-25T05:34:22.308Z,0
2019-01-25T05:35:22.845Z,0
2019-01-25T05:36:22.850Z,0
2019-01-25T05:37:22.610Z,0
2019-01-25T05:38:22.612Z,0
2019-01-25T05:39:23.179Z,0
2019-01-25T05:40:22.644Z,0
2019-01-25T05:41:30.353Z,0
2019-01-25T05:42:22.682Z,0
2019-01-25T05:43:22.952Z,0
2019-01-25T05:44:22.964Z,0
2019-01-25T05:45:22.716Z,0
2019-01-25T05:46:22.727Z,0
2019-01-25T05:47:22.485Z,0
2019-01-25T05:48:23.273Z,0
2019-01-25T05:49:22.772Z,0
2019-01-25T05:50:23.065Z,0
2019-01-25T05:51:23.058Z,0
2019-01-25T05:52:22.809Z,0
2019-01-25T05:53:23.096Z,0
2019-01-25T05:54:22.840Z,0
2019-01-25T05:55:22.845Z,0
2019-01-25T05:56:23.154Z,0
2019-01-25T05:57:23.132Z,0
2019-01-25T05:58:22.919Z,0
2019-01-25T05:59:23.156Z,0
2019-01-25T06:00:22.913Z,0
2019-01-25T06:01:22.664Z,0
2019-01-25T06:02:22.704Z,0
2019-01-25T06:03:23.216Z,0
2019-01-25T06:04:22.968Z,0
2019-01-25T06:05:22.727Z,0
2019-01-25T06:06:23.276Z,0
2019-01-25T06:07:23.294Z,0
2019-01-25T06:08:23.296Z,0
2019-01-25T06:09:23.313Z,0
2019-01-25T06:10:23.051Z,0
2019-01-25T06:11:23.581Z,0
2019-01-25T06:12:23.088Z,0
2019-01-25T06:13:23.373Z,0
2019-01-25T06:14:23.652Z,0
2019-01-25T06:15:23.394Z,0
2019-01-25T06:16:23.148Z,0
2019-01-25T06:17:23.162Z,0
2019-01-25T06:18:23.680Z,0
2019-01-25T06:19:23.705Z,0
2019-01-25T06:20:23.459Z,0
2019-01-25T06:21:23.758Z,0
2019-01-25T06:22:23.738Z,0
2019-01-25T06:23:23.229Z,0
2019-01-25T06:24:23.235Z,0
2019-01-25T06:25:23.809Z,0
2019-01-25T06:26:23.023Z,0
2019-01-25T06:27:24.067Z,0
2019-01-25T06:28:23.579Z,0
2019-01-25T06:29:23.842Z,0
2019-01-25T06:30:23.655Z,0
2019-01-25T06:31:23.333Z,0
2019-01-25T06:32:23.612Z,0
2019-01-25T06:33:23.380Z,0
2019-01-25T06:34:23.409Z,0
2019-01-25T06:35:23.137Z,0
2019-01-25T06:36:24.206Z,0
2019-01-25T06:37:23.710Z,0
2019-01-25T06:38:23.460Z,0
2019-01-25T06:39:23.970Z,0
2019-01-25T06:40:23.989Z,0
2019-01-25T06:41:23.746Z,0
2019-01-25T06:42:23.748Z,0
2019-01-25T06:43:24.015Z,0
2019-01-25T06:44:23.266Z,0
2019-01-25T06:45:23.537Z,0
2019-01-25T06:46:23.804Z,0
2019-01-25T06:47:24.070Z,0
2019-01-25T06:48:23.574Z,0
2019-01-25T06:49:23.860Z,0
2019-01-25T06:50:23.604Z,0
2019-01-25T06:51:24.135Z,0
2019-01-25T06:52:24.419Z,0
2019-01-25T06:53:23.898Z,0
2019-01-25T06:54:23.716Z,0
2019-01-25T06:55:23.672Z,0
2019-01-25T06:56:23.696Z,0
2019-01-25T06:57:24.215Z,0
2019-01-25T06:58:23.714Z,0
2019-01-25T06:59:24.252Z,0
2019-01-25T07:00:23.729Z,0
2019-01-25T07:01:24.006Z,0
2019-01-25T07:02:23.755Z,0
2019-01-25T07:03:24.083Z,0
2019-01-25T07:04:24.058Z,0
2019-01-25T07:05:24.067Z,0
2019-01-25T07:06:24.378Z,0
2019-01-25T07:07:23.620Z,0
2019-01-25T07:08:24.116Z,0
2019-01-25T07:09:24.134Z,0
2019-01-25T07:10:24.128Z,0
2019-01-25T07:11:24.134Z,0
2019-01-25T07:12:23.912Z,0
2019-01-25T07:13:23.661Z,0
2019-01-25T07:14:24.235Z,0
2019-01-25T07:15:23.967Z,0
2019-01-25T07:16:23.963Z,0
2019-01-25T07:17:24.771Z,0
2019-01-25T07:18:24.515Z,0
2019-01-25T07:19:24.538Z,0
2019-01-25T07:20:24.022Z,0
2019-01-25T07:21:24.012Z,0
2019-01-25T07:22:24.297Z,0
2019-01-25T07:23:24.312Z,0
2019-01-25T07:24:24.075Z,0
2019-01-25T07:25:24.064Z,0
2019-01-25T07:26:24.105Z,0
2019-01-25T07:27:24.113Z,0
2019-01-25T07:28:24.114Z,0
2019-01-25T07:29:24.400Z,0
2019-01-25T07:30:23.938Z,0
2019-01-25T07:31:24.395Z,0
2019-01-25T07:32:24.752Z,0
2019-01-25T07:33:24.668Z,0
2019-01-25T07:34:24.659Z,0
2019-01-25T07:35:24.369Z,0
2019-01-25T07:36:24.753Z,0
2019-01-25T07:37:24.815Z,0
2019-01-25T07:38:24.647Z,0
2019-01-25T07:39:24.356Z,0
2019-01-25T07:40:24.599Z,0
2019-01-25T07:41:24.650Z,0
2019-01-25T07:42:24.470Z,0
2019-01-25T07:43:24.625Z,0
2019-01-25T07:44:24.676Z,0
2019-01-25T07:45:24.804Z,0
2019-01-25T07:46:24.987Z,0
2019-01-25T07:47:24.491Z,0
2019-01-25T07:48:25.008Z,0
2019-01-25T07:49:24.716Z,0
2019-01-25T07:50:24.520Z,0
2019-01-25T07:51:24.959Z,0
2019-01-25T07:52:25.312Z,0
2019-01-25T07:53:26.647Z,0
2019-01-25T07:54:24.635Z,0
2019-01-25T07:55:25.080Z,0
2019-01-25T07:56:24.799Z,0
2019-01-25T07:57:24.320Z,0
2019-01-25T07:58:24.923Z,0
2019-01-25T07:59:24.846Z,0
2019-01-25T08:00:24.904Z,0
2019-01-25T08:01:24.338Z,0
2019-01-25T08:02:24.800Z,5
2019-01-25T08:03:24.641Z,5
2019-01-25T08:04:25.496Z,5
2019-01-25T08:05:25.493Z,5
2019-01-25T08:06:24.918Z,5
2019-01-25T08:07:24.700Z,5
2019-01-25T08:08:24.473Z,5
2019-01-25T08:09:24.974Z,5
2019-01-25T08:10:25.063Z,5
2019-01-25T08:11:25.270Z,5
2019-01-25T08:12:24.763Z,5
2019-01-25T08:13:24.805Z,5
2019-01-25T08:14:25.518Z,5
2019-01-25T08:15:25.506Z,5
2019-01-25T08:16:24.830Z,5
2019-01-25T08:17:25.169Z,5
2019-01-25T08:18:24.829Z,5
2019-01-25T08:19:25.260Z,5
2019-01-25T08:20:25.359Z,5
2019-01-25T08:21:24.924Z,5
2019-01-25T08:22:25.203Z,5
2019-01-25T08:23:25.262Z,5
2019-01-25T08:24:25.347Z,5
2019-01-25T08:25:25.545Z,5
2019-01-25T08:26:25.154Z,5
2019-01-25T08:27:25.542Z,5
2019-01-25T08:28:25.029Z,5
2019-01-25T08:29:32.505Z,5
2019-01-25T08:30:25.665Z,5
2019-01-25T08:31:25.341Z,5
2019-01-25T08:32:26.524Z,5
2019-01-25T08:33:25.057Z,5
2019-01-25T08:34:25.422Z,5
2019-01-25T08:35:25.857Z,5
2019-01-25T08:36:25.678Z,5
2019-01-25T08:37:25.401Z,10
2019-01-25T08:38:25.248Z,10
2019-01-25T08:39:25.410Z,10
2019-01-25T08:40:25.295Z,10
2019-01-25T08:41:25.413Z,10
2019-01-25T08:42:25.822Z,10
2019-01-25T08:43:25.475Z,10
2019-01-25T08:44:26.061Z,10
2019-01-25T08:45:25.914Z,10
2019-01-25T08:46:25.288Z,10
2019-01-25T08:47:25.427Z,10
2019-01-25T08:48:25.582Z,10
2019-01-25T08:49:25.558Z,10
2019-01-25T08:50:25.572Z,10
2019-01-25T08:51:25.897Z,10
2019-01-25T08:52:25.479Z,10
2019-01-25T08:53:25.629Z,10
2019-01-25T08:54:25.939Z,10
2019-01-25T08:55:26.223Z,15
2019-01-25T08:56:25.602Z,15
2019-01-25T08:57:25.419Z,15
2019-01-25T08:58:25.278Z,15
2019-01-25T08:59:25.765Z,15
2019-01-25T09:00:25.629Z,15
2019-01-25T09:01:25.383Z,15
2019-01-25T09:02:25.389Z,15
2019-01-25T09:03:25.416Z,15
2019-01-25T09:04:25.419Z,15
2019-01-25T09:05:25.190Z,20
2019-01-25T09:06:25.506Z,20
2019-01-25T09:07:26.608Z,20
2019-01-25T09:08:26.308Z,20
2019-01-25T09:09:25.742Z,20
2019-01-25T09:10:26.021Z,20
2019-01-25T09:11:25.510Z,20
2019-01-25T09:12:32.310Z,20
2019-01-25T09:13:26.060Z,20
2019-01-25T09:14:25.587Z,20
2019-01-25T09:15:27.314Z,20
2019-01-25T09:16:25.854Z,20
2019-01-25T09:17:25.874Z,20
2019-01-25T09:18:25.615Z,25
2019-01-25T09:19:26.155Z,25
2019-01-25T09:20:25.903Z,25
2019-01-25T09:21:25.662Z,25
2019-01-25T09:22:25.719Z,25
2019-01-25T09:23:25.948Z,25
2019-01-25T09:24:26.239Z,25
2019-01-25T09:25:25.995Z,25
2019-01-25T09:26:25.980Z,25
2019-01-25T09:27:26.112Z,25
2019-01-25T09:28:25.756Z,25
2019-01-25T09:29:25.499Z,25
2019-01-25T09:30:26.336Z,25
2019-01-25T09:31:25.789Z,25
2019-01-25T09:32:25.801Z,25
2019-01-25T09:33:26.098Z,25
2019-01-25T09:34:25.840Z,25
2019-01-25T09:35:25.838Z,30
2019-01-25T09:36:26.167Z,30
2019-01-25T09:37:26.132Z,30
2019-01-25T09:38:25.638Z,30
2019-01-25T09:39:26.172Z,30
2019-01-25T09:40:26.188Z,30
2019-01-25T09:41:26.441Z,30
2019-01-25T09:42:33.330Z,30
2019-01-25T09:43:26.469Z,30
2019-01-25T09:44:26.226Z,35
2019-01-25T09:45:25.969Z,35
2019-01-25T09:46:26.300Z,35
2019-01-25T09:47:26.012Z,35
2019-01-25T09:48:26.055Z,25
2019-01-25T09:49:26.027Z,30
2019-01-25T09:50:26.071Z,30
2019-01-25T09:51:26.587Z,25
2019-01-25T09:52:26.092Z,30
2019-01-25T09:53:26.088Z,30
2019-01-25T09:54:26.397Z,30
2019-01-25T09:55:28.690Z,30
2019-01-25T09:56:26.470Z,25
2019-01-25T09:57:26.400Z,25
2019-01-25T09:58:26.437Z,25
2019-01-25T09:59:26.688Z,25
2019-01-25T10:00:26.454Z,25
2019-01-25T10:01:26.197Z,25
2019-01-25T10:02:26.220Z,30
2019-01-25T10:03:26.502Z,25
2019-01-25T10:04:26.246Z,20
2019-01-25T10:05:26.002Z,25
2019-01-25T10:06:26.526Z,30
2019-01-25T10:07:26.544Z,25
2019-01-25T10:08:26.313Z,30
2019-01-25T10:09:26.564Z,30
2019-01-25T10:10:28.250Z,35
2019-01-25T10:11:26.892Z,30
2019-01-25T10:12:27.135Z,35
2019-01-25T10:13:26.884Z,35
2019-01-25T10:14:26.403Z,30
2019-01-25T10:15:26.279Z,35
2019-01-25T10:16:26.699Z,40
2019-01-25T10:17:26.439Z,40
2019-01-25T10:18:31.294Z,40
2019-01-25T10:19:26.455Z,35
2019-01-25T10:20:26.724Z,35
2019-01-25T10:21:26.734Z,30
2019-01-25T10:22:26.242Z,30
2019-01-25T10:23:26.513Z,30
2019-01-25T10:24:26.792Z,30
2019-01-25T10:25:26.531Z,25
2019-01-25T10:26:27.321Z,25
2019-01-25T10:27:27.107Z,25
2019-01-25T10:28:26.860Z,30
2019-01-25T10:29:26.322Z,30
2019-01-25T10:30:27.132Z,25
2019-01-25T10:31:26.354Z,25
2019-01-25T10:32:26.641Z,25
2019-01-25T10:33:26.667Z,25
2019-01-25T10:34:27.186Z,25
2019-01-25T10:35:26.957Z,30
2019-01-25T10:36:26.695Z,30
2019-01-25T10:37:26.691Z,35
2019-01-25T10:38:26.707Z,35
2019-01-25T10:39:26.983Z,30
2019-01-25T10:40:26.740Z,40
2019-01-25T10:41:26.745Z,40
2019-01-25T10:42:27.324Z,45
2019-01-25T10:43:26.515Z,45
2019-01-25T10:44:27.306Z,45
2019-01-25T10:45:26.563Z,45
2019-01-25T10:46:26.852Z,40
2019-01-25T10:47:26.830Z,40
2019-01-25T10:48:26.597Z,40
2019-01-25T10:49:26.872Z,35
2019-01-25T10:50:27.149Z,40
2019-01-25T10:51:26.636Z,40
2019-01-25T10:52:27.159Z,35
2019-01-25T10:53:27.191Z,35
2019-01-25T10:54:27.462Z,35
2019-01-25T10:55:27.740Z,30
2019-01-25T10:56:27.015Z,40
2019-01-25T10:57:27.223Z,40
2019-01-25T10:58:28.081Z,40
2019-01-25T10:59:27.913Z,35
2019-01-25T11:00:26.767Z,35
2019-01-25T11:01:27.293Z,35
2019-01-25T11:02:27.321Z,35
2019-01-25T11:03:27.604Z,35
2019-01-25T11:04:27.393Z,35
2019-01-25T11:05:27.613Z,35
2019-01-25T11:06:27.116Z,35
2019-01-25T11:07:26.868Z,35
2019-01-25T11:08:27.157Z,35
2019-01-25T11:09:27.150Z,35
2019-01-25T11:10:27.425Z,40
2019-01-25T11:11:27.432Z,35
2019-01-25T11:12:27.446Z,35
2019-01-25T11:13:27.707Z,40
2019-01-25T11:14:27.474Z,40
2019-01-25T11:15:27.496Z,40
2019-01-25T11:16:27.767Z,40
2019-01-25T11:17:27.778Z,40
2019-01-25T11:18:27.534Z,35
2019-01-25T11:19:27.799Z,35
2019-01-25T11:20:27.832Z,30
2019-01-25T11:21:27.331Z,30
2019-01-25T11:22:27.841Z,30
2019-01-25T11:23:27.862Z,35
2019-01-25T11:24:27.624Z,35
2019-01-25T11:25:27.618Z,35
2019-01-25T11:26:27.633Z,30
2019-01-25T11:27:29.357Z,30
2019-01-25T11:28:27.928Z,35
2019-01-25T11:29:27.682Z,30
2019-01-25T11:30:27.423Z,30
2019-01-25T11:31:27.461Z,30
2019-01-25T11:32:27.712Z,30
2019-01-25T11:33:27.775Z,25
2019-01-25T11:34:27.779Z,30
2019-01-25T11:35:28.287Z,35
2019-01-25T11:36:27.253Z,40
2019-01-25T11:37:27.273Z,35
2019-01-25T11:38:27.537Z,40
2019-01-25T11:39:27.574Z,35
2019-01-25T11:40:27.575Z,35
2019-01-25T11:41:27.849Z,35
2019-01-25T11:42:28.136Z,40
2019-01-25T11:43:27.649Z,35
2019-01-25T11:44:27.655Z,30
2019-01-25T11:45:27.906Z,30
2019-01-25T11:46:27.657Z,35
2019-01-25T11:47:27.678Z,35
2019-01-25T11:48:27.423Z,35
2019-01-25T11:49:27.972Z,40
2019-01-25T11:50:27.971Z,35
2019-01-25T11:51:29.148Z,35
2019-01-25T11:52:32.323Z,35
2019-01-25T11:53:28.011Z,35
2019-01-25T11:54:28.293Z,35
2019-01-25T11:55:27.538Z,35
2019-01-25T11:56:27.794Z,35
2019-01-25T11:57:27.818Z,30
2019-01-25T11:58:27.853Z,30
2019-01-25T11:59:28.090Z,30
2019-01-25T12:00:28.618Z,30
2019-01-25T12:01:27.866Z,35
2019-01-25T12:02:29.916Z,35
2019-01-25T12:03:28.163Z,30
2019-01-25T12:04:27.918Z,30
2019-01-25T12:05:27.677Z,30
2019-01-25T12:06:28.224Z,30
2019-01-25T12:07:27.959Z,35
2019-01-25T12:08:27.999Z,35
2019-01-25T12:09:28.504Z,30
2019-01-25T12:10:28.264Z,30
2019-01-25T12:11:28.009Z,30
2019-01-25T12:12:28.598Z,30
2019-01-25T12:13:28.555Z,30
2019-01-25T12:14:28.321Z,30
2019-01-25T12:15:28.076Z,25
2019-01-25T12:16:28.335Z,25
2019-01-25T12:17:29.638Z,30
2019-01-25T12:18:28.365Z,25
2019-01-25T12:19:28.903Z,25
2019-01-25T12:20:28.667Z,20
2019-01-25T12:21:29.628Z,25
2019-01-25T12:22:28.882Z,25
2019-01-25T12:23:28.182Z,25
2019-01-25T12:24:28.729Z,30
2019-01-25T12:25:28.754Z,30
2019-01-25T12:26:27.963Z,30
2019-01-25T12:27:28.485Z,30
2019-01-25T12:28:28.503Z,30
2019-01-25T12:29:28.595Z,30
2019-01-25T12:30:28.551Z,35
2019-01-25T12:31:28.554Z,35
2019-01-25T12:32:28.368Z,35
2019-01-25T12:33:28.325Z,35
2019-01-25T12:34:29.104Z,30
2019-01-25T12:35:28.900Z,40
2019-01-25T12:36:28.108Z,35
2019-01-25T12:37:28.446Z,35
2019-01-25T12:38:28.708Z,40
2019-01-25T12:39:28.678Z,40
2019-01-25T12:40:28.702Z,35
2019-01-25T12:41:28.935Z,35
2019-01-25T12:42:28.775Z,35
2019-01-25T12:43:32.765Z,30
2019-01-25T12:44:28.475Z,30
2019-01-25T12:45:28.752Z,30
2019-01-25T12:46:28.803Z,35
2019-01-25T12:47:28.513Z,30
2019-01-25T12:48:29.049Z,30
2019-01-25T12:49:29.065Z,35
2019-01-25T12:50:28.854Z,30
2019-01-25T12:51:29.120Z,30
2019-01-25T12:52:28.643Z,35
2019-01-25T12:53:28.917Z,35
2019-01-25T12:54:29.150Z,30
2019-01-25T12:55:34.941Z,35
2019-01-25T12:56:28.929Z,30
2019-01-25T12:57:28.918Z,30
2019-01-25T12:58:30.753Z,25
2019-01-25T12:59:29.222Z,25
2019-01-25T13:00:28.769Z,25
2019-01-25T13:01:28.977Z,25
2019-01-25T13:02:28.737Z,25
2019-01-25T13:03:29.630Z,25
2019-01-25T13:04:28.772Z,25
2019-01-25T13:05:28.556Z,25
2019-01-25T13:06:29.581Z,25
2019-01-25T13:07:28.796Z,25
2019-01-25T13:08:29.065Z,25
2019-01-25T13:09:29.078Z,25
2019-01-25T13:10:28.581Z,25
2019-01-25T13:11:29.633Z,20
2019-01-25T13:12:31.990Z,20
2019-01-25T13:13:36.077Z,20
2019-01-25T13:14:28.907Z,20
2019-01-25T13:15:28.912Z,20
2019-01-25T13:16:29.704Z,20
2019-01-25T13:17:29.588Z,20
2019-01-25T13:18:29.270Z,20
2019-01-25T13:19:28.984Z,20
2019-01-25T13:20:29.284Z,20
2019-01-25T13:21:29.284Z,20
2019-01-25T13:22:29.006Z,20
2019-01-25T13:23:29.034Z,20
2019-01-25T13:24:29.318Z,25
2019-01-25T13:25:29.326Z,25
2019-01-25T13:26:28.839Z,20
2019-01-25T13:27:29.354Z,20
2019-01-25T13:28:29.966Z,20
2019-01-25T13:29:35.541Z,20
2019-01-25T13:30:29.395Z,20
2019-01-25T13:31:29.583Z,20
2019-01-25T13:32:29.435Z,20
2019-01-25T13:33:29.751Z,20
2019-01-25T13:34:29.311Z,20
2019-01-25T13:35:29.408Z,15
2019-01-25T13:36:28.999Z,15
2019-01-25T13:37:33.601Z,15
2019-01-25T13:38:29.815Z,15
2019-01-25T13:39:29.008Z,15
2019-01-25T13:40:30.046Z,15
2019-01-25T13:41:34.084Z,15
2019-01-25T13:42:29.028Z,10
2019-01-25T13:43:29.826Z,10
2019-01-25T13:44:34.939Z,10
2019-01-25T13:45:29.615Z,10
2019-01-25T13:46:29.100Z,10
2019-01-25T13:47:30.054Z,10
2019-01-25T13:48:29.886Z,10
2019-01-25T13:49:29.950Z,10
2019-01-25T13:50:29.940Z,10
2019-01-25T13:51:29.686Z,10
2019-01-25T13:52:29.424Z,10
2019-01-25T13:53:30.008Z,10
2019-01-25T13:54:33.449Z,10
2019-01-25T13:55:30.007Z,10
2019-01-25T13:56:29.532Z,10
2019-01-25T13:57:29.508Z,10
2019-01-25T13:58:29.573Z,10
2019-01-25T13:59:29.813Z,10
2019-01-25T14:00:29.825Z,10
2019-01-25T14:01:36.992Z,10
2019-01-25T14:02:29.836Z,10
2019-01-25T14:03:29.600Z,10
2019-01-25T14:04:29.871Z,10
2019-01-25T14:05:30.406Z,10
2019-01-25T14:06:29.621Z,10
2019-01-25T14:07:30.123Z,10
2019-01-25T14:08:30.169Z,10
2019-01-25T14:09:29.679Z,10
2019-01-25T14:10:29.947Z,10
2019-01-25T14:11:29.448Z,10
2019-01-25T14:12:29.981Z,10
2019-01-25T14:13:34.067Z,10
2019-01-25T14:14:30.266Z,10
2019-01-25T14:15:29.506Z,10
2019-01-25T14:16:29.789Z,10
2019-01-25T14:17:29.804Z,10
2019-01-25T14:18:30.132Z,10
2019-01-25T14:19:30.327Z,10
2019-01-25T14:20:32.266Z,10
2019-01-25T14:21:29.864Z,10
2019-01-25T14:22:29.612Z,10
2019-01-25T14:23:30.131Z,10
2019-01-25T14:24:29.912Z,10
2019-01-25T14:25:30.411Z,10
2019-01-25T14:26:29.947Z,10
2019-01-25T14:27:30.186Z,10
2019-01-25T14:28:30.457Z,5
2019-01-25T14:29:33.863Z,5
2019-01-25T14:30:30.224Z,5
2019-01-25T14:31:30.254Z,10
2019-01-25T14:32:30.341Z,5
2019-01-25T14:33:30.070Z,5
2019-01-25T14:34:30.549Z,5